createdAt,value
2018-05-02T00:01:10.768Z,3.30
2018-05-02T00:03:39.067Z,3.37
2018-05-02T00:06:06.618Z,3.10
2018-05-02T00:08:34.922Z,3.57
2018-05-02T00:11:02.476Z,3.73
2018-05-02T00:13:30.783Z,3.37
2018-05-02T00:15:58.335Z,3.13
2018-05-02T00:18:26.640Z,3.37
2018-05-02T00:20:54.959Z,3.40
2018-05-02T00:23:22.495Z,3.43
2018-05-02T00:25:50.819Z,3.33
2018-05-02T00:28:18.362Z,4.40
2018-05-02T00:30:45.933Z,3.40
2018-05-02T00:33:13.475Z,3.50
2018-05-02T00:35:41.060Z,3.93
2018-05-02T00:38:09.367Z,3.37
2018-05-02T00:40:37.686Z,3.40
2018-05-02T00:43:05.218Z,3.30
2018-05-02T00:45:33.536Z,3.20
2018-05-02T00:48:01.082Z,4.10
2018-05-02T00:50:29.406Z,3.70
2018-05-02T00:52:56.941Z,3.90
2018-05-02T00:55:24.523Z,3.33
2018-05-02T00:57:52.054Z,4.13
2018-05-02T01:00:19.606Z,3.40
2018-05-02T01:02:47.146Z,3.37
2018-05-02T01:05:14.709Z,3.10
2018-05-02T01:07:43.040Z,4.00
2018-05-02T01:10:10.588Z,3.77
2018-05-02T01:12:38.157Z,3.00
2018-05-02T01:15:05.764Z,3.30
2018-05-02T01:17:33.332Z,3.20
2018-05-02T01:20:00.887Z,4.27
2018-05-02T01:22:28.472Z,4.00
2018-05-02T01:24:56.025Z,4.07
2018-05-02T01:27:23.591Z,4.70
2018-05-02T01:29:51.164Z,4.60
2018-05-02T01:32:18.720Z,3.80
2018-05-02T01:34:46.277Z,4.37
2018-05-02T01:37:14.603Z,4.47
2018-05-02T01:39:42.145Z,4.20
2018-05-02T01:42:09.712Z,4.73
2018-05-02T01:44:38.020Z,4.30
2018-05-02T01:47:05.593Z,4.97
2018-05-02T01:49:33.135Z,4.70
2018-05-02T01:52:01.464Z,5.13
2018-05-02T01:54:29.012Z,7.10
2018-05-02T01:56:56.575Z,5.23
2018-05-02T01:59:24.906Z,5.47
2018-05-02T02:01:52.517Z,4.80
2018-05-02T02:04:20.073Z,5.50
2018-05-02T02:06:47.642Z,5.90
2018-05-02T02:09:15.262Z,6.70
2018-05-02T02:11:42.783Z,7.00
2018-05-02T02:14:10.354Z,6.20
2018-05-02T02:16:37.952Z,5.90
2018-05-02T02:19:05.527Z,6.30
2018-05-02T02:21:33.839Z,6.43
2018-05-02T02:24:01.404Z,5.97
2018-05-02T02:26:28.952Z,6.00
2018-05-02T02:28:56.515Z,5.37
2018-05-02T02:31:24.065Z,5.50
2018-05-02T02:33:51.712Z,5.27
2018-05-02T02:36:19.209Z,4.60
2018-05-02T02:38:46.779Z,6.40
2018-05-02T02:41:14.328Z,5.43
2018-05-02T02:43:41.897Z,5.30
2018-05-02T02:46:09.440Z,5.60
2018-05-02T02:48:37.769Z,6.60
2018-05-02T02:51:05.311Z,5.60
2018-05-02T02:53:33.651Z,7.50
2018-05-02T02:56:01.218Z,6.23
2018-05-02T02:58:28.778Z,6.20
2018-05-02T03:00:56.320Z,6.10
2018-05-02T03:03:23.888Z,6.57
2018-05-02T03:05:51.443Z,6.87
2018-05-02T03:08:19.772Z,6.90
2018-05-02T03:10:47.316Z,6.57
2018-05-02T03:13:15.685Z,7.00
2018-05-02T03:15:43.246Z,7.07
2018-05-02T03:18:10.871Z,7.50
2018-05-02T03:20:38.416Z,6.60
2018-05-02T03:23:06.742Z,9.10
2018-05-02T03:25:34.291Z,6.60
2018-05-02T03:28:01.853Z,6.60
2018-05-02T03:30:29.408Z,6.40
2018-05-02T03:32:58.452Z,6.57
2018-05-02T03:35:25.991Z,6.67
2018-05-02T03:37:54.309Z,6.40
2018-05-02T03:40:21.884Z,7.50
2018-05-02T03:42:49.423Z,7.07
2018-05-02T03:45:17.754Z,8.67
2018-05-02T03:47:45.318Z,7.10
2018-05-02T03:50:12.892Z,6.90
2018-05-02T03:52:40.454Z,7.63
2018-05-02T03:55:08.033Z,7.43
2018-05-02T03:57:35.572Z,6.33
2018-05-02T04:00:15.753Z,6.43
2018-05-02T04:02:56.079Z,4.40
2018-05-02T04:08:30.270Z,5.37
2018-05-02T04:10:57.855Z,4.30
2018-05-02T04:13:26.164Z,4.60
2018-05-02T04:15:53.738Z,5.17
2018-05-02T04:18:21.294Z,3.90
2018-05-02T04:20:49.625Z,4.80
2018-05-02T04:23:17.167Z,4.80
2018-05-02T04:25:44.743Z,4.77
2018-05-02T04:28:12.296Z,4.00
2018-05-02T04:30:40.622Z,3.90
2018-05-02T04:33:08.167Z,3.90
2018-05-02T04:35:35.739Z,4.00
2018-05-02T04:38:03.299Z,4.40
2018-05-02T04:40:31.639Z,3.70
2018-05-02T04:42:59.188Z,3.27
2018-05-02T04:45:26.752Z,4.07
2018-05-02T04:47:54.307Z,4.03
2018-05-02T04:50:21.907Z,3.40
2018-05-02T04:52:49.505Z,3.40
2018-05-02T04:55:17.087Z,4.00
2018-05-02T04:57:44.616Z,3.77
2018-05-02T05:00:12.184Z,4.30
2018-05-02T05:02:39.735Z,3.70
2018-05-02T05:05:08.044Z,3.77
2018-05-02T05:07:35.612Z,3.53
2018-05-02T05:10:03.156Z,3.60
2018-05-02T05:12:31.488Z,3.80
2018-05-02T05:14:59.031Z,3.53
2018-05-02T05:17:27.368Z,4.53
2018-05-02T05:19:55.753Z,4.17
2018-05-02T05:22:23.327Z,3.63
2018-05-02T05:24:50.904Z,3.77
2018-05-02T05:27:18.468Z,3.70
2018-05-02T05:29:46.027Z,5.00
2018-05-02T05:32:13.624Z,3.53
2018-05-02T05:34:41.172Z,4.30
2018-05-02T05:37:08.755Z,4.10
2018-05-02T05:39:36.308Z,4.40
2018-05-02T05:42:03.872Z,4.10
2018-05-02T05:44:31.428Z,4.13
2018-05-02T05:46:59.000Z,4.53
2018-05-02T05:49:26.561Z,3.80
2018-05-02T05:51:54.902Z,4.60
2018-05-02T05:54:23.286Z,5.17
2018-05-02T05:56:51.583Z,4.37
2018-05-02T05:59:19.129Z,4.40
2018-05-02T06:01:46.699Z,3.70
2018-05-02T06:04:14.254Z,3.60
2018-05-02T06:06:41.872Z,3.40
2018-05-02T06:09:09.402Z,3.10
2018-05-02T06:11:36.976Z,3.47
2018-05-02T06:14:04.524Z,3.17
2018-05-02T06:16:32.844Z,2.70
2018-05-02T06:19:00.460Z,2.90
2018-05-02T06:21:28.008Z,2.97
2018-05-02T06:23:55.577Z,2.00
2018-05-02T06:26:23.136Z,1.70
2018-05-02T06:28:50.704Z,2.07
2018-05-02T06:31:18.259Z,2.00
2018-05-02T06:33:45.900Z,2.37
2018-05-02T06:36:13.445Z,2.00
2018-05-02T06:38:41.051Z,2.57
2018-05-02T06:41:08.600Z,1.80
2018-05-02T06:43:36.936Z,2.50
2018-05-02T06:46:05.253Z,2.20
2018-05-02T06:48:32.827Z,1.90
2018-05-02T06:51:00.384Z,1.30
2018-05-02T06:53:27.960Z,1.07
2018-05-02T06:55:55.540Z,1.47
2018-05-02T06:58:23.117Z,1.30
2018-05-02T07:00:50.692Z,1.57
2018-05-02T07:03:18.280Z,1.20
2018-05-02T07:05:45.831Z,0.90
2018-05-02T07:08:13.397Z,1.13
2018-05-02T07:10:40.945Z,1.10
2018-05-02T07:13:08.520Z,0.70
2018-05-02T07:15:36.109Z,1.00
2018-05-02T07:18:03.678Z,1.20
2018-05-02T07:20:31.237Z,1.30
2018-05-02T07:22:58.832Z,1.07
2018-05-02T07:25:26.381Z,1.07
2018-05-02T07:27:53.950Z,0.80
2018-05-02T07:30:21.515Z,0.90
2018-05-02T07:32:49.948Z,1.23
2018-05-02T07:35:17.474Z,1.10
2018-05-02T07:37:45.004Z,0.80
2018-05-02T07:40:12.580Z,1.10
2018-05-02T07:42:40.899Z,0.83
2018-05-02T07:45:09.231Z,1.33
2018-05-02T07:47:36.779Z,1.10
2018-05-02T07:50:04.347Z,1.50
2018-05-02T07:52:32.664Z,0.93
2018-05-02T07:55:00.236Z,1.27
2018-05-02T07:57:27.791Z,1.47
2018-05-02T07:59:55.361Z,1.30
2018-05-02T08:02:22.912Z,1.07
2018-05-02T08:04:51.243Z,1.37
2018-05-02T08:07:18.791Z,1.30
2018-05-02T08:09:46.361Z,1.40
2018-05-02T08:12:13.908Z,1.50
2018-05-02T08:14:42.243Z,1.20
2018-05-02T08:17:09.796Z,1.30
2018-05-02T08:19:37.368Z,1.33
2018-05-02T08:22:04.957Z,1.70
2018-05-02T08:24:32.509Z,1.50
2018-05-02T08:27:00.055Z,1.73
2018-05-02T08:29:28.389Z,2.10
2018-05-02T08:31:55.931Z,1.37
2018-05-02T08:34:24.267Z,2.20
2018-05-02T08:36:51.824Z,1.60
2018-05-02T08:39:19.399Z,1.90
2018-05-02T08:41:46.938Z,1.60
2018-05-02T08:44:14.488Z,2.20
2018-05-02T08:46:42.820Z,2.13
2018-05-02T08:49:10.375Z,2.40
2018-05-02T08:51:37.952Z,1.77
2018-05-02T08:54:05.503Z,1.70
2018-05-02T08:56:33.839Z,2.07
2018-05-02T08:59:01.387Z,2.00
2018-05-02T09:01:28.982Z,2.37
2018-05-02T09:03:56.532Z,1.80
2018-05-02T09:06:24.104Z,2.13
2018-05-02T09:08:51.739Z,2.57
2018-05-02T09:11:19.250Z,2.90
2018-05-02T09:13:46.804Z,2.23
2018-05-02T09:16:15.146Z,1.80
2018-05-02T09:18:42.697Z,2.70
2018-05-02T09:21:10.266Z,3.03
2018-05-02T09:23:37.812Z,2.30
2018-05-02T09:26:05.395Z,2.90
2018-05-02T09:28:32.949Z,3.13
2018-05-02T09:31:01.287Z,2.63
2018-05-02T09:33:28.844Z,2.83
2018-05-02T09:35:56.426Z,3.60
2018-05-02T09:38:23.983Z,3.60
2018-05-02T09:40:51.551Z,3.67
2018-05-02T09:43:19.108Z,3.83
2018-05-02T09:45:46.672Z,3.83
2018-05-02T09:48:14.222Z,3.30
2018-05-02T09:50:41.799Z,2.97
2018-05-02T09:53:10.118Z,3.27
2018-05-02T09:55:37.665Z,4.37
2018-05-02T09:58:06.004Z,4.10
2018-05-02T10:00:34.330Z,3.77
2018-05-02T10:03:02.173Z,4.00
2018-05-02T10:05:29.834Z,4.20
2018-05-02T10:07:57.403Z,3.60
2018-05-02T10:10:24.975Z,3.90
2018-05-02T10:12:52.539Z,4.57
2018-05-02T10:15:20.088Z,3.70
2018-05-02T10:17:48.424Z,4.00
2018-05-02T10:20:15.972Z,4.80
2018-05-02T10:22:43.540Z,4.90
2018-05-02T10:25:11.109Z,4.70
2018-05-02T10:27:38.681Z,4.37
2018-05-02T10:30:06.243Z,4.30
2018-05-02T10:32:33.816Z,4.50
2018-05-02T10:35:01.364Z,4.10
2018-05-02T10:37:29.709Z,3.90
2018-05-02T10:39:57.265Z,3.97
2018-05-02T10:42:24.835Z,3.63
2018-05-02T10:44:52.416Z,3.80
2018-05-02T10:47:19.979Z,4.30
2018-05-02T10:49:47.528Z,3.33
2018-05-02T10:52:15.859Z,3.40
2018-05-02T10:54:43.405Z,2.70
2018-05-02T10:57:11.004Z,4.23
2018-05-02T10:59:38.552Z,3.03
2018-05-02T11:02:06.119Z,3.67
2018-05-02T11:04:33.677Z,3.43
2018-05-02T11:07:02.043Z,3.87
2018-05-02T11:09:29.589Z,4.10
2018-05-02T11:11:57.147Z,3.37
2018-05-02T11:14:24.720Z,3.40
2018-05-02T11:16:52.279Z,6.10
2018-05-02T11:19:19.848Z,3.90
2018-05-02T11:21:47.400Z,3.63
2018-05-02T11:24:14.972Z,3.87
2018-05-02T11:26:42.521Z,4.87
2018-05-02T11:29:10.095Z,4.97
2018-05-02T11:31:37.640Z,5.70
2018-05-02T11:34:05.217Z,5.80
2018-05-02T11:36:32.764Z,4.60
2018-05-02T11:39:00.341Z,5.10
2018-05-02T11:41:28.664Z,5.77
2018-05-02T11:43:56.231Z,4.33
2018-05-02T11:46:23.780Z,4.70
2018-05-02T11:48:51.343Z,4.40
2018-05-02T11:51:18.901Z,4.83
2018-05-02T11:53:46.473Z,3.90
2018-05-02T11:56:14.027Z,4.57
2018-05-02T11:58:41.598Z,4.07
2018-05-02T12:01:09.157Z,4.63
2018-05-02T12:03:37.551Z,3.67
2018-05-02T12:06:05.073Z,4.07
2018-05-02T12:08:32.643Z,4.43
2018-05-02T12:11:00.189Z,3.70
2018-05-02T12:13:27.765Z,3.30
2018-05-02T12:15:55.310Z,3.90
2018-05-02T12:18:22.875Z,4.10
2018-05-02T12:20:51.195Z,3.27
2018-05-02T12:23:18.750Z,2.90
2018-05-02T12:25:46.328Z,3.03
2018-05-02T12:28:13.953Z,2.87
2018-05-02T12:30:41.516Z,2.80
2018-05-02T12:33:09.838Z,2.50
2018-05-02T12:35:38.171Z,2.83
2018-05-02T12:38:05.725Z,2.90
2018-05-02T12:40:33.303Z,2.83
2018-05-02T12:43:00.852Z,3.40
2018-05-02T12:45:28.420Z,3.50
2018-05-02T12:47:56.738Z,4.73
2018-05-02T12:50:24.327Z,4.60
2018-05-02T12:52:51.893Z,3.00
2018-05-02T12:55:19.464Z,2.83
2018-05-02T12:57:47.007Z,2.77
2018-05-02T13:00:14.582Z,4.00
2018-05-02T13:02:42.146Z,5.07
2018-05-02T13:05:09.720Z,7.60
2018-05-02T13:07:37.292Z,4.57
2018-05-02T13:10:04.863Z,3.33
2018-05-02T13:12:32.410Z,2.90
2018-05-02T13:15:00.749Z,3.13
2018-05-02T13:17:28.295Z,3.20
2018-05-02T13:19:55.878Z,2.30
2018-05-02T13:22:23.450Z,2.87
2018-05-02T13:24:51.028Z,2.80
2018-05-02T13:27:18.594Z,2.53
2018-05-02T13:29:46.155Z,2.27
2018-05-02T13:32:13.704Z,2.47
2018-05-02T13:34:41.283Z,2.27
2018-05-02T13:37:09.597Z,2.47
2018-05-02T13:39:37.151Z,2.77
2018-05-02T13:42:05.498Z,2.60
2018-05-02T13:44:33.816Z,2.27
2018-05-02T13:47:02.151Z,2.17
2018-05-02T13:49:29.699Z,2.60
2018-05-02T13:51:57.278Z,2.97
2018-05-02T13:54:24.836Z,2.60
2018-05-02T13:56:53.176Z,2.67
2018-05-02T13:59:20.732Z,2.90
2018-05-02T14:01:48.294Z,2.23
2018-05-02T14:04:15.848Z,2.57
2018-05-02T14:06:43.416Z,2.23
2018-05-02T14:09:10.961Z,2.47
2018-05-02T14:11:38.527Z,2.20
2018-05-02T14:14:06.081Z,2.07
2018-05-02T14:16:34.413Z,2.83
2018-05-02T14:19:02.811Z,3.03
2018-05-02T14:21:30.319Z,2.63
2018-05-02T14:23:57.872Z,3.23
2018-05-02T14:26:25.444Z,2.70
2018-05-02T14:28:52.993Z,2.67
2018-05-02T14:31:21.324Z,2.40
2018-05-02T14:33:48.872Z,2.57
2018-05-02T14:36:16.445Z,3.00
2018-05-02T14:38:43.995Z,2.50
2018-05-02T14:41:12.328Z,2.57
2018-05-02T14:43:39.891Z,2.33
2018-05-02T14:46:07.455Z,2.67
2018-05-02T14:48:34.996Z,2.80
2018-05-02T14:51:03.331Z,2.10
2018-05-02T14:53:31.656Z,2.50
2018-05-02T14:55:59.983Z,3.00
2018-05-02T14:58:27.568Z,2.50
2018-05-02T15:00:55.116Z,2.80
2018-05-02T15:03:22.683Z,2.37
2018-05-02T15:05:51.001Z,1.87
2018-05-02T15:08:18.599Z,1.93
2018-05-02T15:10:46.154Z,2.27
2018-05-02T15:13:13.724Z,1.40
2018-05-02T15:15:41.274Z,1.40
2018-05-02T15:18:08.840Z,1.40
2018-05-02T15:20:36.392Z,1.10
2018-05-02T15:23:04.733Z,1.37
2018-05-02T15:25:32.283Z,1.17
2018-05-02T15:27:59.857Z,1.37
2018-05-02T15:30:27.407Z,1.53
2018-05-02T15:32:55.766Z,1.97
2018-05-02T15:35:23.376Z,1.90
2018-05-02T15:37:50.959Z,2.10
2018-05-02T15:40:18.599Z,2.17
2018-05-02T15:42:46.212Z,1.90
2018-05-02T15:45:13.767Z,1.97
2018-05-02T15:47:42.128Z,2.10
2018-05-02T15:50:09.675Z,2.33
2018-05-02T15:52:37.243Z,2.13
2018-05-02T15:55:04.813Z,2.10
2018-05-02T15:57:32.403Z,2.30
2018-05-02T15:59:59.955Z,3.17
2018-05-02T16:02:27.536Z,2.17
2018-05-02T16:04:55.849Z,2.50
2018-05-02T16:07:23.472Z,2.10
2018-05-02T16:09:51.177Z,2.07
2018-05-02T16:12:18.751Z,1.90
2018-05-02T16:14:46.319Z,2.50
2018-05-02T16:17:13.880Z,2.50
2018-05-02T16:19:41.465Z,2.00
2018-05-02T16:22:09.020Z,2.20
2018-05-02T16:24:36.611Z,2.00
2018-05-02T16:27:04.181Z,2.23
2018-05-02T16:29:31.772Z,2.20
2018-05-02T16:31:59.360Z,2.67
2018-05-02T16:34:27.773Z,2.20
2018-05-02T16:36:55.356Z,1.80
2018-05-02T16:39:22.960Z,2.60
2018-05-02T16:41:50.547Z,1.90
2018-05-02T16:44:18.912Z,1.93
2018-05-02T16:46:46.472Z,1.93
2018-05-02T16:49:14.053Z,2.30
2018-05-02T16:51:41.616Z,2.77
2018-05-02T16:54:09.958Z,2.53
2018-05-02T16:56:38.338Z,1.97
2018-05-02T16:59:05.900Z,2.07
2018-05-02T17:01:33.480Z,1.83
2018-05-02T17:04:01.099Z,2.47
2018-05-02T17:06:28.684Z,2.13
2018-05-02T17:08:56.247Z,1.90
2018-05-02T17:11:23.810Z,2.03
2018-05-02T17:13:51.394Z,2.50
2018-05-02T17:16:18.958Z,3.07
2018-05-02T17:18:46.537Z,3.03
2018-05-02T17:21:14.111Z,2.90
2018-05-02T17:23:41.689Z,2.73
2018-05-02T17:26:09.256Z,3.87
2018-05-02T17:28:36.840Z,2.90
2018-05-02T17:31:04.483Z,2.53
2018-05-02T17:33:32.052Z,1.90
2018-05-02T17:35:59.632Z,1.83
2018-05-02T17:38:27.299Z,2.50
2018-05-02T17:40:54.911Z,2.07
2018-05-02T17:43:22.509Z,2.20
2018-05-02T17:45:50.089Z,1.93
2018-05-02T17:48:18.432Z,2.10
2018-05-02T17:50:46.006Z,2.27
2018-05-02T17:53:13.589Z,2.30
2018-05-02T17:55:41.184Z,1.90
2018-05-02T17:58:08.819Z,1.90
2018-05-02T18:00:36.452Z,2.23
2018-05-02T18:03:04.011Z,2.40
2018-05-02T18:05:31.616Z,3.00
2018-05-02T18:07:59.205Z,3.27
2018-05-02T18:10:26.916Z,2.80
2018-05-02T18:12:54.449Z,3.27
2018-05-02T18:15:22.060Z,2.07
2018-05-02T18:17:49.644Z,2.60
2018-05-02T18:20:18.014Z,2.10
2018-05-02T18:22:45.677Z,2.30
2018-05-02T18:25:13.211Z,2.70
2018-05-02T18:27:40.771Z,2.13
2018-05-02T18:30:08.344Z,2.30
2018-05-02T18:32:35.892Z,2.50
2018-05-02T18:35:03.488Z,1.60
2018-05-02T18:37:31.038Z,2.20
2018-05-02T18:39:59.367Z,1.90
2018-05-02T18:42:26.960Z,2.20
2018-05-02T18:44:54.509Z,2.10
2018-05-02T18:47:22.076Z,2.37
2018-05-02T18:49:49.631Z,2.67
2018-05-02T18:52:17.210Z,2.33
2018-05-02T18:54:44.786Z,2.40
2018-05-02T18:57:12.348Z,2.57
2018-05-02T18:59:39.903Z,2.23
2018-05-02T19:02:08.286Z,2.30
2018-05-02T19:04:35.837Z,2.00
2018-05-02T19:07:03.431Z,2.60
2018-05-02T19:09:31.751Z,2.40
2018-05-02T19:11:59.320Z,2.03
2018-05-02T19:14:27.007Z,2.37
2018-05-02T19:16:54.591Z,2.20
2018-05-02T19:19:27.804Z,2.67
2018-05-02T19:21:55.368Z,2.57
2018-05-02T19:24:22.918Z,2.67
2018-05-02T19:26:50.592Z,2.50
2018-05-02T19:29:18.171Z,2.67
2018-05-02T19:31:51.616Z,2.60
2018-05-02T19:34:19.175Z,2.40
2018-05-02T19:36:46.744Z,2.73
2018-05-02T19:39:14.303Z,2.70
2018-05-02T19:41:47.624Z,2.80
2018-05-02T19:44:15.190Z,2.90
2018-05-02T19:46:43.540Z,3.80
2018-05-02T19:49:11.884Z,4.07
2018-05-02T19:51:45.835Z,3.40
2018-05-02T19:54:13.405Z,2.70
2018-05-02T19:56:40.968Z,3.37
2018-05-02T19:59:08.545Z,3.63
2018-05-02T20:01:42.255Z,2.40
2018-05-02T20:04:09.896Z,2.60
2018-05-02T20:06:37.452Z,3.07
2018-05-02T20:09:11.408Z,2.50
2018-05-02T20:11:44.660Z,2.67
2018-05-02T20:14:12.995Z,2.53
2018-05-02T20:16:40.540Z,2.40
2018-05-02T20:19:08.118Z,2.20
2018-05-02T20:21:35.675Z,2.57
2018-05-02T20:24:03.262Z,2.33
2018-05-02T20:26:30.816Z,2.40
2018-05-02T20:28:59.150Z,2.83
2018-05-02T20:31:26.699Z,3.00
2018-05-02T20:33:56.079Z,3.00
2018-05-02T20:36:24.745Z,3.03
2018-05-02T20:38:52.260Z,2.83
2018-05-02T20:41:19.804Z,3.10
2018-05-02T20:43:47.424Z,3.40
2018-05-02T20:46:15.725Z,2.80
2018-05-02T20:48:43.296Z,3.23
2018-05-02T20:51:10.847Z,4.03
2018-05-02T20:53:39.172Z,3.50
2018-05-02T20:56:06.721Z,2.90
2018-05-02T20:58:34.292Z,3.47
2018-05-02T21:01:01.845Z,3.07
2018-05-02T21:03:29.436Z,3.00
2018-05-02T21:05:56.978Z,3.83
2018-05-02T21:08:25.292Z,2.97
2018-05-02T21:10:52.873Z,3.50
2018-05-02T21:13:20.431Z,3.03
2018-05-02T21:15:47.991Z,3.47
2018-05-02T21:18:16.312Z,4.60
2018-05-02T21:20:43.891Z,4.17
2018-05-02T21:23:11.464Z,3.37
2018-05-02T21:25:39.036Z,3.57
2018-05-02T21:28:06.600Z,3.70
2018-05-02T21:30:34.168Z,3.00
2018-05-02T21:33:01.722Z,3.27
2018-05-02T21:35:29.283Z,3.50
2018-05-02T21:37:57.594Z,3.53
2018-05-02T21:40:25.169Z,3.93
2018-05-02T21:42:52.720Z,3.30
2018-05-02T21:45:20.313Z,3.57
2018-05-02T21:47:47.897Z,3.73
2018-05-02T21:50:15.466Z,3.73
2018-05-02T21:52:43.017Z,3.97
2018-05-02T21:55:10.612Z,4.03
2018-05-02T21:57:38.173Z,4.00
2018-05-02T22:00:05.757Z,3.37
2018-05-02T22:02:33.304Z,3.77
2018-05-02T22:05:00.873Z,3.10
2018-05-02T22:07:28.419Z,3.53
2018-05-02T22:09:56.759Z,4.00
2018-05-02T22:12:24.312Z,4.07
2018-05-02T22:14:51.886Z,3.80
2018-05-02T22:17:19.431Z,3.83
2018-05-02T22:19:47.768Z,3.40
2018-05-02T22:22:15.320Z,4.00
2018-05-02T22:24:42.867Z,3.97
2018-05-02T22:27:11.203Z,3.80
2018-05-02T22:29:38.756Z,3.80
2018-05-02T22:32:06.333Z,3.80
2018-05-02T22:34:33.890Z,4.63
2018-05-02T22:37:01.456Z,4.20
2018-05-02T22:39:29.272Z,4.80
2018-05-02T22:41:56.836Z,3.57
2018-05-02T22:44:25.156Z,4.07
2018-05-02T22:46:52.728Z,4.50
2018-05-02T22:49:20.280Z,4.23
2018-05-02T22:51:47.844Z,5.47
2018-05-02T22:54:16.160Z,4.77
2018-05-02T22:56:43.728Z,4.40
2018-05-02T22:59:12.067Z,4.50
2018-05-02T23:01:39.624Z,4.37
2018-05-02T23:04:07.176Z,4.40
2018-05-02T23:06:35.504Z,4.53
2018-05-02T23:09:03.060Z,4.80
2018-05-02T23:11:30.624Z,4.67
2018-05-02T23:13:58.932Z,4.47
2018-05-02T23:16:26.496Z,3.70
2018-05-02T23:18:54.045Z,4.00
2018-05-02T23:21:22.375Z,4.53
2018-05-02T23:23:49.924Z,4.93
2018-05-02T23:26:17.492Z,4.70
2018-05-02T23:28:45.040Z,3.53
2018-05-02T23:31:13.385Z,4.63
2018-05-02T23:33:40.936Z,4.67
2018-05-02T23:36:08.500Z,4.10
2018-05-02T23:38:36.052Z,3.93
2018-05-02T23:41:04.364Z,4.23
2018-05-02T23:43:31.932Z,4.20
2018-05-02T23:45:59.479Z,3.97
2018-05-02T23:48:27.809Z,4.63
2018-05-02T23:50:55.352Z,5.00
2018-05-02T23:53:23.680Z,5.20
2018-05-02T23:55:51.223Z,4.57
2018-05-02T23:58:18.792Z,4.40
